createdAt,value
2024-02-23T00:00:00.740Z,943.58
2024-02-23T00:01:00.714Z,943.55
2024-02-23T00:02:00.694Z,943.57
2024-02-23T00:03:00.638Z,943.67
2024-02-23T00:04:00.625Z,943.65
2024-02-23T00:05:00.719Z,943.61
2024-02-23T00:06:00.552Z,943.52
2024-02-23T00:07:00.587Z,943.51
2024-02-23T00:08:00.532Z,943.47
2024-02-23T00:09:00.454Z,943.52
2024-02-23T00:10:00.444Z,943.49
2024-02-23T00:11:00.448Z,943.58
2024-02-23T00:12:00.480Z,943.51
2024-02-23T00:13:00.319Z,943.57
2024-02-23T00:14:00.337Z,943.61
2024-02-23T00:15:00.343Z,943.58
2024-02-23T00:16:00.221Z,943.56
2024-02-23T00:17:00.320Z,943.54
2024-02-23T00:18:00.252Z,943.57
2024-02-23T00:19:00.252Z,943.58
2024-02-23T00:20:00.183Z,943.56
2024-02-23T00:21:00.068Z,943.52
2024-02-23T00:22:00.058Z,943.51
2024-02-23T00:23:00.019Z,943.49
2024-02-23T00:23:59.964Z,943.56
2024-02-23T00:24:59.939Z,943.53
2024-02-23T00:25:59.948Z,943.58
2024-02-23T00:26:59.872Z,943.56
2024-02-23T00:27:59.840Z,943.54
2024-02-23T00:28:59.851Z,943.52
2024-02-23T00:29:59.797Z,943.50
2024-02-23T00:30:59.749Z,943.48
2024-02-23T00:31:59.758Z,943.47
2024-02-23T00:32:59.704Z,943.48
2024-02-23T00:33:59.705Z,943.49
2024-02-23T00:34:59.679Z,943.48
2024-02-23T00:35:59.655Z,943.40
2024-02-23T00:36:59.559Z,943.41
2024-02-23T00:37:59.627Z,943.37
2024-02-23T00:38:59.498Z,943.38
2024-02-23T00:39:59.459Z,943.37
2024-02-23T00:40:59.468Z,943.42
2024-02-23T00:41:59.403Z,943.49
2024-02-23T00:42:59.364Z,943.48
2024-02-23T00:43:59.384Z,943.49
2024-02-23T00:44:59.304Z,943.46
2024-02-23T00:45:59.292Z,943.48
2024-02-23T00:46:59.316Z,943.55
2024-02-23T00:47:59.264Z,943.45
2024-02-23T00:48:59.225Z,943.52
2024-02-23T00:49:59.136Z,943.55
2024-02-23T00:50:59.109Z,943.60
2024-02-23T00:51:59.071Z,943.59
2024-02-23T00:52:59.075Z,943.58
2024-02-23T00:53:59.013Z,943.57
2024-02-23T00:54:58.985Z,943.57
2024-02-23T00:55:58.983Z,943.65
2024-02-23T00:56:58.957Z,943.56
2024-02-23T00:57:58.898Z,943.60
2024-02-23T00:58:58.881Z,943.67
2024-02-23T00:59:58.851Z,943.67
2024-02-23T01:00:58.832Z,943.72
2024-02-23T01:01:58.830Z,943.71
2024-02-23T01:02:58.754Z,943.77
2024-02-23T01:03:58.700Z,943.71
2024-02-23T01:04:58.710Z,943.75
2024-02-23T01:05:58.656Z,943.87
2024-02-23T01:06:58.600Z,943.84
2024-02-23T01:07:58.614Z,943.90
2024-02-23T01:08:58.540Z,943.86
2024-02-23T01:09:58.505Z,943.95
2024-02-23T01:10:58.541Z,943.94
2024-02-23T01:11:58.566Z,943.98
2024-02-23T01:12:58.442Z,944.09
2024-02-23T01:13:58.397Z,944.11
2024-02-23T01:14:59.934Z,944.22
2024-02-23T01:15:58.314Z,944.27
2024-02-23T01:16:58.327Z,944.38
2024-02-23T01:17:58.346Z,944.34
2024-02-23T01:18:58.240Z,944.39
2024-02-23T01:19:58.252Z,944.38
2024-02-23T01:20:58.160Z,944.48
2024-02-23T01:21:58.123Z,944.44
2024-02-23T01:22:58.145Z,944.42
2024-02-23T01:23:58.060Z,944.40
2024-02-23T01:24:58.030Z,944.44
2024-02-23T01:25:58.042Z,944.51
2024-02-23T01:26:57.968Z,944.60
2024-02-23T01:27:57.934Z,944.59
2024-02-23T01:28:57.970Z,944.57
2024-02-23T01:29:57.879Z,944.66
2024-02-23T01:30:57.844Z,944.61
2024-02-23T01:31:57.842Z,944.73
2024-02-23T01:32:57.886Z,944.67
2024-02-23T01:33:57.860Z,944.62
2024-02-23T01:34:57.759Z,944.72
2024-02-23T01:35:57.707Z,944.64
2024-02-23T01:36:57.654Z,944.68
2024-02-23T01:37:57.656Z,944.65
2024-02-23T01:38:57.584Z,944.72
2024-02-23T01:39:57.552Z,944.58
2024-02-23T01:40:57.524Z,944.56
2024-02-23T01:41:57.486Z,944.67
2024-02-23T01:42:58.802Z,944.60
2024-02-23T01:43:57.447Z,944.72
2024-02-23T01:44:57.390Z,944.51
2024-02-23T01:45:57.358Z,944.61
2024-02-23T01:46:57.383Z,944.61
2024-02-23T01:47:57.355Z,944.56
2024-02-23T01:48:57.345Z,944.68
2024-02-23T01:49:57.269Z,944.70
2024-02-23T01:50:57.196Z,944.59
2024-02-23T01:51:57.162Z,944.68
2024-02-23T01:52:57.149Z,944.60
2024-02-23T01:53:57.128Z,944.51
2024-02-23T01:54:57.075Z,944.60
2024-02-23T01:55:57.076Z,944.60
2024-02-23T01:56:57.484Z,944.53
2024-02-23T01:57:56.967Z,944.56
2024-02-23T01:58:56.966Z,944.51
2024-02-23T01:59:56.901Z,944.49
2024-02-23T02:00:56.886Z,944.51
2024-02-23T02:01:56.843Z,944.43
2024-02-23T02:02:56.805Z,944.36
2024-02-23T02:03:56.778Z,944.40
2024-02-23T02:04:56.831Z,944.36
2024-02-23T02:05:56.727Z,944.33
2024-02-23T02:06:56.684Z,944.26
2024-02-23T02:07:56.658Z,944.36
2024-02-23T02:08:56.635Z,944.32
2024-02-23T02:09:56.586Z,944.31
2024-02-23T02:10:56.623Z,944.22
2024-02-23T02:11:56.596Z,944.18
2024-02-23T02:12:56.480Z,944.15
2024-02-23T02:13:56.463Z,944.05
2024-02-23T02:14:56.412Z,944.00
2024-02-23T02:15:56.381Z,943.97
2024-02-23T02:16:56.386Z,943.92
2024-02-23T02:17:56.334Z,943.87
2024-02-23T02:18:56.305Z,943.93
2024-02-23T02:19:56.291Z,943.91
2024-02-23T02:20:56.212Z,943.92
2024-02-23T02:21:56.201Z,943.89
2024-02-23T02:22:56.179Z,943.97
2024-02-23T02:23:56.115Z,943.90
2024-02-23T02:24:56.094Z,943.95
2024-02-23T02:25:56.089Z,943.89
2024-02-23T02:26:56.022Z,943.83
2024-02-23T02:27:55.985Z,943.79
2024-02-23T02:28:55.990Z,943.74
2024-02-23T02:29:55.968Z,943.64
2024-02-23T02:30:55.921Z,943.59
2024-02-23T02:31:55.890Z,943.60
2024-02-23T02:32:55.827Z,943.52
2024-02-23T02:33:55.836Z,943.56
2024-02-23T02:34:55.813Z,943.66
2024-02-23T02:35:55.724Z,943.63
2024-02-23T02:36:55.693Z,943.63
2024-02-23T02:37:55.717Z,943.58
2024-02-23T02:38:55.625Z,943.56
2024-02-23T02:39:55.601Z,943.48
2024-02-23T02:40:55.587Z,943.54
2024-02-23T02:41:55.528Z,943.52
2024-02-23T02:42:55.503Z,943.48
2024-02-23T02:43:55.482Z,943.42
2024-02-23T02:44:55.432Z,943.49
2024-02-23T02:45:55.404Z,943.51
2024-02-23T02:46:55.438Z,943.57
2024-02-23T02:47:55.385Z,943.58
2024-02-23T02:48:55.315Z,943.50
2024-02-23T02:49:55.286Z,943.47
2024-02-23T02:50:55.248Z,943.44
2024-02-23T02:51:55.204Z,943.45
2024-02-23T02:52:55.226Z,943.44
2024-02-23T02:53:55.162Z,943.47
2024-02-23T02:54:55.111Z,943.45
2024-02-23T02:55:55.104Z,943.38
2024-02-23T02:56:55.044Z,943.36
2024-02-23T02:57:55.011Z,943.34
2024-02-23T02:58:54.998Z,943.31
2024-02-23T02:59:54.949Z,943.28
2024-02-23T03:00:54.949Z,943.25
2024-02-23T03:01:54.891Z,943.32
2024-02-23T03:02:54.851Z,943.33
2024-02-23T03:03:54.880Z,943.35
2024-02-23T03:04:54.853Z,943.39
2024-02-23T03:05:54.839Z,943.46
2024-02-23T03:06:54.729Z,943.44
2024-02-23T03:07:54.719Z,943.40
2024-02-23T03:08:54.663Z,943.42
2024-02-23T03:09:54.644Z,943.46
2024-02-23T03:10:54.628Z,943.48
2024-02-23T03:11:54.588Z,943.51
2024-02-23T03:12:54.538Z,943.46
2024-02-23T03:13:54.521Z,943.46
2024-02-23T03:14:54.468Z,943.39
2024-02-23T03:15:54.430Z,943.36
2024-02-23T03:16:54.437Z,943.34
2024-02-23T03:17:54.410Z,943.37
2024-02-23T03:18:54.334Z,943.34
2024-02-23T03:19:54.523Z,943.30
2024-02-23T03:20:54.312Z,943.34
2024-02-23T03:21:54.238Z,943.37
2024-02-23T03:22:54.233Z,943.41
2024-02-23T03:23:54.173Z,943.47
2024-02-23T03:24:54.142Z,943.42
2024-02-23T03:25:54.168Z,943.38
2024-02-23T03:26:54.191Z,943.39
2024-02-23T03:27:54.046Z,943.32
2024-02-23T03:28:54.063Z,943.37
2024-02-23T03:29:53.982Z,943.42
2024-02-23T03:30:53.950Z,943.50
2024-02-23T03:31:53.954Z,943.47
2024-02-23T03:32:53.988Z,943.48
2024-02-23T03:33:53.887Z,943.45
2024-02-23T03:34:53.851Z,943.49
2024-02-23T03:35:53.789Z,943.49
2024-02-23T03:36:53.763Z,943.46
2024-02-23T03:37:53.803Z,943.43
2024-02-23T03:38:53.690Z,943.41
2024-02-23T03:39:53.659Z,943.39
2024-02-23T03:40:53.674Z,943.42
2024-02-23T03:41:53.624Z,943.41
2024-02-23T03:42:53.565Z,943.46
2024-02-23T03:43:53.615Z,943.50
2024-02-23T03:44:53.511Z,943.46
2024-02-23T03:45:53.475Z,943.44
2024-02-23T03:46:53.444Z,943.44
2024-02-23T03:47:53.543Z,943.42
2024-02-23T03:48:53.440Z,943.47
2024-02-23T03:49:53.378Z,943.48
2024-02-23T03:50:53.310Z,943.48
2024-02-23T03:51:53.277Z,943.47
2024-02-23T03:52:53.273Z,943.41
2024-02-23T03:53:53.218Z,943.42
2024-02-23T03:54:53.179Z,943.40
2024-02-23T03:55:53.156Z,943.44
2024-02-23T03:56:53.117Z,943.42
2024-02-23T03:57:53.106Z,943.40
2024-02-23T03:58:53.093Z,943.35
2024-02-23T03:59:53.023Z,943.34
2024-02-23T04:00:53.033Z,943.31
2024-02-23T04:01:52.998Z,943.25
2024-02-23T04:02:54.009Z,943.22
2024-02-23T04:03:52.938Z,943.20
2024-02-23T04:04:52.910Z,943.20
2024-02-23T04:05:52.871Z,943.18
2024-02-23T04:06:52.831Z,943.13
2024-02-23T04:07:52.812Z,943.09
2024-02-23T04:08:52.736Z,943.09
2024-02-23T04:09:52.702Z,943.15
2024-02-23T04:10:52.751Z,943.15
2024-02-23T04:11:52.700Z,943.24
2024-02-23T04:12:52.607Z,943.21
2024-02-23T04:13:53.152Z,943.19
2024-02-23T04:14:52.548Z,943.13
2024-02-23T04:15:52.519Z,943.17
2024-02-23T04:16:52.510Z,943.14
2024-02-23T04:17:52.503Z,943.17
2024-02-23T04:18:52.480Z,943.28
2024-02-23T04:19:52.430Z,943.30
2024-02-23T04:20:52.350Z,943.32
2024-02-23T04:21:52.318Z,943.33
2024-02-23T04:22:52.292Z,943.29
2024-02-23T04:23:52.255Z,943.29
2024-02-23T04:24:52.223Z,943.30
2024-02-23T04:25:52.238Z,943.30
2024-02-23T04:26:52.160Z,943.30
2024-02-23T04:27:52.126Z,943.32
2024-02-23T04:28:52.138Z,943.35
2024-02-23T04:29:52.086Z,943.39
2024-02-23T04:30:52.031Z,943.39
2024-02-23T04:31:52.003Z,943.41
2024-02-23T04:32:51.986Z,943.42
2024-02-23T04:33:51.965Z,943.46
2024-02-23T04:34:51.964Z,943.47
2024-02-23T04:35:51.877Z,943.48
2024-02-23T04:36:51.840Z,943.45
2024-02-23T04:37:51.845Z,943.48
2024-02-23T04:38:51.795Z,943.46
2024-02-23T04:39:51.746Z,943.47
2024-02-23T04:40:51.808Z,943.52
2024-02-23T04:41:51.685Z,943.51
2024-02-23T04:42:51.659Z,943.47
2024-02-23T04:43:51.683Z,943.45
2024-02-23T04:44:51.583Z,943.47
2024-02-23T04:45:51.585Z,943.45
2024-02-23T04:46:51.560Z,943.44
2024-02-23T04:47:51.517Z,943.44
2024-02-23T04:48:51.471Z,943.48
2024-02-23T04:49:51.439Z,943.45
2024-02-23T04:50:51.395Z,943.47
2024-02-23T04:51:51.361Z,943.40
2024-02-23T04:52:51.390Z,943.40
2024-02-23T04:53:51.321Z,943.41
2024-02-23T04:54:51.272Z,943.40
2024-02-23T04:55:51.275Z,943.45
2024-02-23T04:56:51.206Z,943.47
2024-02-23T04:57:51.186Z,943.47
2024-02-23T04:58:51.167Z,943.51
2024-02-23T04:59:51.113Z,943.52
2024-02-23T05:00:51.085Z,943.55
2024-02-23T05:01:51.096Z,943.56
2024-02-23T05:02:51.010Z,943.60
2024-02-23T05:03:51.029Z,943.60
2024-02-23T05:04:51.003Z,943.64
2024-02-23T05:05:50.917Z,943.62
2024-02-23T05:06:50.924Z,943.64
2024-02-23T05:07:50.902Z,943.62
2024-02-23T05:08:50.821Z,943.58
2024-02-23T05:09:50.798Z,943.60
2024-02-23T05:10:50.844Z,943.62
2024-02-23T05:11:50.827Z,943.63
2024-02-23T05:12:50.693Z,943.63
2024-02-23T05:13:50.725Z,943.64
2024-02-23T05:14:50.630Z,943.60
2024-02-23T05:15:50.596Z,943.58
2024-02-23T05:16:50.602Z,943.62
2024-02-23T05:17:50.586Z,943.63
2024-02-23T05:18:50.537Z,943.65
2024-02-23T05:19:50.513Z,943.69
2024-02-23T05:20:52.737Z,943.69
2024-02-23T05:21:50.403Z,943.68
2024-02-23T05:22:50.491Z,943.73
2024-02-23T05:23:50.349Z,943.75
2024-02-23T05:24:50.340Z,943.78
2024-02-23T05:25:50.325Z,943.81
2024-02-23T05:26:50.306Z,943.80
2024-02-23T05:27:50.235Z,943.77
2024-02-23T05:28:50.244Z,943.77
2024-02-23T05:29:50.163Z,943.79
2024-02-23T05:30:50.121Z,943.77
2024-02-23T05:31:50.158Z,943.77
2024-02-23T05:32:50.237Z,943.77
2024-02-23T05:33:50.298Z,943.82
2024-02-23T05:34:50.082Z,943.85
2024-02-23T05:35:49.964Z,943.89
2024-02-23T05:36:49.936Z,943.87
2024-02-23T05:37:49.942Z,943.89
2024-02-23T05:38:49.870Z,943.86
2024-02-23T05:39:49.862Z,943.84
2024-02-23T05:40:49.828Z,943.86
2024-02-23T05:41:49.772Z,943.82
2024-02-23T05:42:49.743Z,943.80
2024-02-23T05:43:49.765Z,943.81
2024-02-23T05:44:49.729Z,943.79
2024-02-23T05:45:49.649Z,943.75
2024-02-23T05:46:49.666Z,943.74
2024-02-23T05:47:49.710Z,943.65
2024-02-23T05:48:49.617Z,943.62
2024-02-23T05:49:49.614Z,943.63
2024-02-23T05:50:49.487Z,943.61
2024-02-23T05:51:49.455Z,943.63
2024-02-23T05:52:49.533Z,943.62
2024-02-23T05:53:49.393Z,943.58
2024-02-23T05:54:52.537Z,943.57
2024-02-23T05:55:49.337Z,943.51
2024-02-23T05:56:49.293Z,943.51
2024-02-23T05:57:49.270Z,943.45
2024-02-23T05:58:49.317Z,943.46
2024-02-23T05:59:49.202Z,943.46
2024-02-23T06:00:49.222Z,943.50
2024-02-23T06:01:49.147Z,943.49
2024-02-23T06:02:49.101Z,943.46
2024-02-23T06:03:49.078Z,943.45
2024-02-23T06:04:49.096Z,943.41
2024-02-23T06:05:49.112Z,943.34
2024-02-23T06:06:49.233Z,943.34
2024-02-23T06:07:48.977Z,943.36
2024-02-23T06:08:48.908Z,943.27
2024-02-23T06:09:48.883Z,943.33
2024-02-23T06:10:48.902Z,943.30
2024-02-23T06:11:48.914Z,943.29
2024-02-23T06:12:48.783Z,943.28
2024-02-23T06:13:48.755Z,943.32
2024-02-23T06:14:48.717Z,943.34
2024-02-23T06:15:48.682Z,943.36
2024-02-23T06:16:48.652Z,943.36
2024-02-23T06:17:48.701Z,943.42
2024-02-23T06:18:48.597Z,943.44
2024-02-23T06:19:48.600Z,943.45
2024-02-23T06:20:48.592Z,943.48
2024-02-23T06:21:48.513Z,943.44
2024-02-23T06:22:48.460Z,943.46
2024-02-23T06:23:48.431Z,943.49
2024-02-23T06:24:48.415Z,943.46
2024-02-23T06:25:48.366Z,943.48
2024-02-23T06:26:48.337Z,943.46
2024-02-23T06:27:48.303Z,943.51
2024-02-23T06:28:48.270Z,943.48
2024-02-23T06:29:48.251Z,943.46
2024-02-23T06:30:48.209Z,943.47
2024-02-23T06:31:48.186Z,943.49
2024-02-23T06:32:48.311Z,943.50
2024-02-23T06:33:48.177Z,943.51
2024-02-23T06:34:48.075Z,943.47
2024-02-23T06:35:48.099Z,943.44
2024-02-23T06:36:48.017Z,943.44
2024-02-23T06:37:48.000Z,943.46
2024-02-23T06:38:47.967Z,943.49
2024-02-23T06:39:47.914Z,943.45
2024-02-23T06:40:52.449Z,943.44
2024-02-23T06:41:47.870Z,943.46
2024-02-23T06:42:47.816Z,943.45
2024-02-23T06:43:47.786Z,943.49
2024-02-23T06:44:47.760Z,943.49
2024-02-23T06:45:47.721Z,943.50
2024-02-23T06:46:47.691Z,943.47
2024-02-23T06:47:47.756Z,943.52
2024-02-23T06:48:47.645Z,943.50
2024-02-23T06:49:47.598Z,943.47
2024-02-23T06:50:47.561Z,943.46
2024-02-23T06:51:47.538Z,943.45
2024-02-23T06:52:47.494Z,943.44
2024-02-23T06:53:47.487Z,943.45
2024-02-23T06:54:47.433Z,943.43
2024-02-23T06:55:47.401Z,943.45
2024-02-23T06:56:47.366Z,943.40
2024-02-23T06:57:47.334Z,943.42
2024-02-23T06:58:47.313Z,943.37
2024-02-23T06:59:47.272Z,943.35
2024-02-23T07:00:47.282Z,943.37
2024-02-23T07:01:47.206Z,943.36
2024-02-23T07:02:47.173Z,943.35
2024-02-23T07:03:47.149Z,943.37
2024-02-23T07:04:47.108Z,943.38
2024-02-23T07:05:47.328Z,943.36
2024-02-23T07:06:47.078Z,943.39
2024-02-23T07:07:47.011Z,943.44
2024-02-23T07:08:47.096Z,943.46
2024-02-23T07:09:46.964Z,943.47
2024-02-23T07:10:46.928Z,943.50
2024-02-23T07:11:47.070Z,943.59
2024-02-23T07:12:46.848Z,943.62
2024-02-23T07:13:46.820Z,943.69
2024-02-23T07:14:46.791Z,943.70
2024-02-23T07:15:46.752Z,943.73
2024-02-23T07:16:46.744Z,943.76
2024-02-23T07:17:46.804Z,943.78
2024-02-23T07:18:46.748Z,943.78
2024-02-23T07:19:46.658Z,943.80
2024-02-23T07:20:46.633Z,943.77
2024-02-23T07:21:46.572Z,943.78
2024-02-23T07:22:46.527Z,943.77
2024-02-23T07:23:46.495Z,943.82
2024-02-23T07:24:46.462Z,943.78
2024-02-23T07:25:46.460Z,943.80
2024-02-23T07:26:46.401Z,943.80
2024-02-23T07:27:46.368Z,943.79
2024-02-23T07:28:46.356Z,943.78
2024-02-23T07:29:46.316Z,943.82
2024-02-23T07:30:46.275Z,943.84
2024-02-23T07:31:46.245Z,943.86
2024-02-23T07:32:49.245Z,943.89
2024-02-23T07:33:46.340Z,943.88
2024-02-23T07:34:46.154Z,943.91
2024-02-23T07:35:46.122Z,943.96
2024-02-23T07:36:46.077Z,943.97
2024-02-23T07:37:46.047Z,943.96
2024-02-23T07:38:46.015Z,943.96
2024-02-23T07:39:45.986Z,943.96
2024-02-23T07:40:45.947Z,943.97
2024-02-23T07:41:45.938Z,943.99
2024-02-23T07:42:45.884Z,943.98
2024-02-23T07:43:45.852Z,943.95
2024-02-23T07:44:45.829Z,943.95
2024-02-23T07:45:45.867Z,943.96
2024-02-23T07:46:45.766Z,943.98
2024-02-23T07:47:45.782Z,944.00
2024-02-23T07:48:45.752Z,944.00
2024-02-23T07:49:45.678Z,944.01
2024-02-23T07:50:45.677Z,944.02
2024-02-23T07:51:45.596Z,944.00
2024-02-23T07:52:45.667Z,944.03
2024-02-23T07:53:45.583Z,944.04
2024-02-23T07:54:45.501Z,944.03
2024-02-23T07:55:45.477Z,944.03
2024-02-23T07:56:45.449Z,944.07
2024-02-23T07:57:45.541Z,944.11
2024-02-23T07:58:45.379Z,944.08
2024-02-23T07:59:45.349Z,944.08
2024-02-23T08:00:45.316Z,944.07
2024-02-23T08:01:45.291Z,944.07
2024-02-23T08:02:45.270Z,944.09
2024-02-23T08:03:45.221Z,944.08
2024-02-23T08:04:45.252Z,944.07
2024-02-23T08:05:45.208Z,944.08
2024-02-23T08:06:45.133Z,944.08
2024-02-23T08:07:45.126Z,944.12
2024-02-23T08:08:45.122Z,944.13
2024-02-23T08:09:45.020Z,944.09
2024-02-23T08:10:44.990Z,944.09
2024-02-23T08:11:45.013Z,944.09
2024-02-23T08:12:45.157Z,944.04
2024-02-23T08:13:44.953Z,944.09
2024-02-23T08:14:44.868Z,944.04
2024-02-23T08:15:44.840Z,944.03
2024-02-23T08:16:44.799Z,944.02
2024-02-23T08:17:45.005Z,944.05
2024-02-23T08:18:44.733Z,944.07
2024-02-23T08:19:44.735Z,944.05
2024-02-23T08:20:44.700Z,944.02
2024-02-23T08:21:44.646Z,943.96
2024-02-23T08:22:44.610Z,943.92
2024-02-23T08:23:44.607Z,943.95
2024-02-23T08:24:44.546Z,943.92
2024-02-23T08:25:44.559Z,943.90
2024-02-23T08:26:44.533Z,943.88
2024-02-23T08:27:44.604Z,943.93
2024-02-23T08:28:44.506Z,943.92
2024-02-23T08:29:44.584Z,943.93
2024-02-23T08:30:44.354Z,943.89
2024-02-23T08:31:44.319Z,943.92
2024-02-23T08:32:44.388Z,943.91
2024-02-23T08:33:44.286Z,943.89
2024-02-23T08:34:44.270Z,943.86
2024-02-23T08:35:44.247Z,943.86
2024-02-23T08:36:44.161Z,943.86
2024-02-23T08:37:44.161Z,943.85
2024-02-23T08:38:44.097Z,943.90
2024-02-23T08:39:44.068Z,943.84
2024-02-23T08:40:44.038Z,943.86
2024-02-23T08:41:44.023Z,943.86
2024-02-23T08:42:43.980Z,943.88
2024-02-23T08:43:43.940Z,943.86
2024-02-23T08:44:43.951Z,943.83
2024-02-23T08:45:43.919Z,943.81
2024-02-23T08:46:43.845Z,943.81
2024-02-23T08:47:44.015Z,943.83
2024-02-23T08:48:43.895Z,943.79
2024-02-23T08:49:43.750Z,943.82
2024-02-23T08:50:43.759Z,943.81
2024-02-23T08:51:43.695Z,943.84
2024-02-23T08:52:43.666Z,943.88
2024-02-23T08:53:43.663Z,943.91
2024-02-23T08:54:43.607Z,943.90
2024-02-23T08:55:43.581Z,943.90
2024-02-23T08:56:43.669Z,943.88
2024-02-23T08:57:43.508Z,943.85
2024-02-23T08:58:43.472Z,943.80
2024-02-23T08:59:43.496Z,943.82
2024-02-23T09:00:43.440Z,943.81
2024-02-23T09:01:43.397Z,943.83
2024-02-23T09:02:43.403Z,943.79
2024-02-23T09:03:43.314Z,943.84
2024-02-23T09:04:43.318Z,943.84
2024-02-23T09:05:43.340Z,943.82
2024-02-23T09:06:43.427Z,943.79
2024-02-23T09:07:43.212Z,943.80
2024-02-23T09:08:43.208Z,943.78
2024-02-23T09:09:43.130Z,943.81
2024-02-23T09:10:43.099Z,943.83
2024-02-23T09:11:43.199Z,943.82
2024-02-23T09:12:43.048Z,943.82
2024-02-23T09:13:43.018Z,943.82
2024-02-23T09:14:43.143Z,943.78
2024-02-23T09:15:42.961Z,943.75
2024-02-23T09:16:42.918Z,943.73
2024-02-23T09:17:43.084Z,943.75
2024-02-23T09:18:42.949Z,943.70
2024-02-23T09:19:42.832Z,943.70
2024-02-23T09:20:42.849Z,943.72
2024-02-23T09:21:42.763Z,943.70
2024-02-23T09:22:42.737Z,943.77
2024-02-23T09:23:42.737Z,943.75
2024-02-23T09:24:42.672Z,943.78
2024-02-23T09:25:44.166Z,943.76
2024-02-23T09:26:42.737Z,943.74
2024-02-23T09:27:42.568Z,943.77
2024-02-23T09:28:42.550Z,943.81
2024-02-23T09:29:42.524Z,943.85
2024-02-23T09:30:42.502Z,943.86
2024-02-23T09:31:42.451Z,943.89
2024-02-23T09:32:42.596Z,943.84
2024-02-23T09:33:42.478Z,943.89
2024-02-23T09:34:42.351Z,943.87
2024-02-23T09:35:42.434Z,943.89
2024-02-23T09:36:43.772Z,943.90
2024-02-23T09:37:42.258Z,943.86
2024-02-23T09:38:42.289Z,943.83
2024-02-23T09:39:42.196Z,943.84
2024-02-23T09:40:42.167Z,943.80
2024-02-23T09:41:42.171Z,943.81
2024-02-23T09:42:42.105Z,943.80
2024-02-23T09:43:42.069Z,943.76
2024-02-23T09:44:42.094Z,943.80
2024-02-23T09:45:42.010Z,943.74
2024-02-23T09:46:41.982Z,943.69
2024-02-23T09:47:42.039Z,943.64
2024-02-23T09:48:43.868Z,943.64
2024-02-23T09:49:41.929Z,943.64
2024-02-23T09:50:41.952Z,943.63
2024-02-23T09:51:41.820Z,943.60
2024-02-23T09:52:41.873Z,943.65
2024-02-23T09:53:41.801Z,943.64
2024-02-23T09:54:41.742Z,943.60
2024-02-23T09:55:41.696Z,943.61
2024-02-23T09:56:41.739Z,943.62
2024-02-23T09:57:41.636Z,943.60
2024-02-23T09:58:41.604Z,943.55
2024-02-23T09:59:41.597Z,943.57
2024-02-23T10:00:41.563Z,943.51
2024-02-23T10:01:41.513Z,943.54
2024-02-23T10:02:41.536Z,943.52
2024-02-23T10:03:41.501Z,943.59
2024-02-23T10:04:41.448Z,943.57
2024-02-23T10:05:42.929Z,943.59
2024-02-23T10:06:41.536Z,943.60
2024-02-23T10:07:41.433Z,943.64
2024-02-23T10:08:41.321Z,943.61
2024-02-23T10:09:41.262Z,943.56
2024-02-23T10:10:41.262Z,943.57
2024-02-23T10:11:41.256Z,943.55
2024-02-23T10:12:41.167Z,943.54
2024-02-23T10:13:41.147Z,943.54
2024-02-23T10:14:41.124Z,943.54
2024-02-23T10:15:51.322Z,943.56
2024-02-23T10:16:41.041Z,943.59
2024-02-23T10:17:41.163Z,943.56
2024-02-23T10:18:41.279Z,943.61
2024-02-23T10:19:41.000Z,943.58
2024-02-23T10:20:40.972Z,943.60
2024-02-23T10:21:40.907Z,943.63
2024-02-23T10:22:40.869Z,943.63
2024-02-23T10:23:40.862Z,943.66
2024-02-23T10:24:40.816Z,943.61
2024-02-23T10:25:40.763Z,943.61
2024-02-23T10:26:40.820Z,943.58
2024-02-23T10:27:40.701Z,943.56
2024-02-23T10:28:40.674Z,943.55
2024-02-23T10:29:40.665Z,943.55
2024-02-23T10:30:40.611Z,943.55
2024-02-23T10:31:40.578Z,943.58
2024-02-23T10:32:40.583Z,943.60
2024-02-23T10:33:40.712Z,943.61
2024-02-23T10:34:44.052Z,943.56
2024-02-23T10:35:40.503Z,943.52
2024-02-23T10:36:40.427Z,943.44
2024-02-23T10:37:40.414Z,943.42
2024-02-23T10:38:40.425Z,943.42
2024-02-23T10:39:40.341Z,943.43
2024-02-23T10:40:40.307Z,943.42
2024-02-23T10:41:40.385Z,943.40
2024-02-23T10:42:40.249Z,943.38
2024-02-23T10:43:40.218Z,943.36
2024-02-23T10:44:40.292Z,943.38
2024-02-23T10:45:41.869Z,943.39
2024-02-23T10:46:40.136Z,943.44
2024-02-23T10:47:40.178Z,943.43
2024-02-23T10:48:40.127Z,943.47
2024-02-23T10:49:40.094Z,943.50
2024-02-23T10:50:40.240Z,943.47
2024-02-23T10:51:39.975Z,943.50
2024-02-23T10:52:39.944Z,943.47
2024-02-23T10:53:39.951Z,943.42
2024-02-23T10:54:39.915Z,943.42
2024-02-23T10:55:39.850Z,943.39
2024-02-23T10:56:39.842Z,943.37
2024-02-23T10:57:39.779Z,943.38
2024-02-23T10:58:39.750Z,943.38
2024-02-23T10:59:39.762Z,943.35
2024-02-23T11:00:39.731Z,943.38
2024-02-23T11:01:39.670Z,943.31
2024-02-23T11:02:39.644Z,943.33
2024-02-23T11:03:39.611Z,943.35
2024-02-23T11:04:39.591Z,943.30
2024-02-23T11:05:39.625Z,943.30
2024-02-23T11:06:39.636Z,943.25
2024-02-23T11:07:39.474Z,943.23
2024-02-23T11:08:39.508Z,943.26
2024-02-23T11:09:39.444Z,943.26
2024-02-23T11:10:39.396Z,943.24
2024-02-23T11:11:39.602Z,943.22
2024-02-23T11:12:39.331Z,943.25
2024-02-23T11:13:39.310Z,943.24
2024-02-23T11:14:39.512Z,943.21
2024-02-23T11:15:39.230Z,943.22
2024-02-23T11:16:39.199Z,943.25
2024-02-23T11:17:39.267Z,943.22
2024-02-23T11:18:39.168Z,943.28
2024-02-23T11:19:39.306Z,943.25
2024-02-23T11:20:39.240Z,943.29
2024-02-23T11:21:39.169Z,943.31
2024-02-23T11:22:39.901Z,943.30
2024-02-23T11:23:39.055Z,943.29
2024-02-23T11:24:38.954Z,943.24
2024-02-23T11:25:38.953Z,943.24
2024-02-23T11:26:39.065Z,943.20
2024-02-23T11:27:38.864Z,943.22
2024-02-23T11:28:38.831Z,943.14
2024-02-23T11:29:38.835Z,943.19
2024-02-23T11:30:40.655Z,943.19
2024-02-23T11:31:38.739Z,943.12
2024-02-23T11:32:38.767Z,943.17
2024-02-23T11:33:38.823Z,943.17
2024-02-23T11:34:38.693Z,943.12
2024-02-23T11:35:38.659Z,943.07
2024-02-23T11:36:38.591Z,943.10
2024-02-23T11:37:38.555Z,943.14
2024-02-23T11:38:38.668Z,943.15
2024-02-23T11:39:38.498Z,943.18
2024-02-23T11:40:38.481Z,943.17
2024-02-23T11:41:38.589Z,943.18
2024-02-23T11:42:38.405Z,943.15
2024-02-23T11:43:38.373Z,943.15
2024-02-23T11:44:38.392Z,943.13
2024-02-23T11:45:38.312Z,943.13
2024-02-23T11:46:38.298Z,943.08
2024-02-23T11:47:38.328Z,943.09
2024-02-23T11:48:38.405Z,943.14
2024-02-23T11:49:38.230Z,943.09
2024-02-23T11:50:38.295Z,942.99
2024-02-23T11:51:38.137Z,942.99
2024-02-23T11:52:38.108Z,943.00
2024-02-23T11:53:38.110Z,943.02
2024-02-23T11:54:38.056Z,943.02
2024-02-23T11:55:38.012Z,943.05
2024-02-23T11:56:38.041Z,943.12
2024-02-23T11:57:46.644Z,943.16
2024-02-23T11:58:37.956Z,943.16
2024-02-23T11:59:38.076Z,943.13
2024-02-23T12:00:37.886Z,943.12
2024-02-23T12:01:37.878Z,943.02
2024-02-23T12:02:37.889Z,943.03
2024-02-23T12:03:37.805Z,943.06
2024-02-23T12:04:37.796Z,943.02
2024-02-23T12:05:37.774Z,943.01
2024-02-23T12:06:37.690Z,943.02
2024-02-23T12:07:37.699Z,942.97
2024-02-23T12:08:37.721Z,942.99
2024-02-23T12:09:37.599Z,942.98
2024-02-23T12:10:37.570Z,942.97
2024-02-23T12:11:37.588Z,942.99
2024-02-23T12:12:37.510Z,943.04
2024-02-23T12:13:37.502Z,943.00
2024-02-23T12:14:37.492Z,942.96
2024-02-23T12:15:37.444Z,942.97
2024-02-23T12:16:37.483Z,943.00
2024-02-23T12:17:37.425Z,943.00
2024-02-23T12:18:37.412Z,942.98
2024-02-23T12:19:37.360Z,942.96
2024-02-23T12:20:37.639Z,942.97
2024-02-23T12:21:37.271Z,942.97
2024-02-23T12:22:37.218Z,942.95
2024-02-23T12:23:37.222Z,942.94
2024-02-23T12:24:37.210Z,942.99
2024-02-23T12:25:38.766Z,942.95
2024-02-23T12:26:37.286Z,942.90
2024-02-23T12:27:37.068Z,942.87